Huvudsida
METAR-TAF:

METAR-TAF

Flygplatser :

Jakutsk, Ryssland

latitud: 62-01N, longitud: 129-43E, höjd: 103 m

Aktuellt väderrapport

Denna rapport gjordes för 24 minuter sedan, klockan 08:30 UTC
Vind 8 kt från nord/nordost
Temperatur -1°C
Fuktighet 50%
Tryck 1010 hPa
Sikt 10 km eller mer
Spridda moln på en höjd av 5000 ft, Cumulonimbus.

METAR: UEEE 250830Z 02004MPS 9999 SCT050CB M01/M10 Q1010 R23L/09//60 NOSIG RMK QFE749

Tid: 17:54 (08:54 UTC)

Väderprognos

Denna rapport gjordes för 54 minuter sedan, klockan 08:00 UTC
Prognos gäller från 25 kl. 09 UTC till 26 kl. 15 UTC
Vind 12 kt från nord i byarna ända upp till 23 kt
Sikt: 3200 m
Brutna moln på en höjd av 1500 ft, Cumulonimbus.
Mulet på en höjd av 7000 ft
lätta snöbyar
Temporärt
från 25 kl. 09 UTC till 25 kl. 18 UTC
Sikt: 1000 m
på en höjd av 300 ft
snöbyar

TAF: UEEE 250800Z 2509/2615 35006G12MPS 3200 -SHSN BKN015CB OVC070 TEMPO 2509/2518 1000 SHSN VV003

Aktuella väderrapporter och prognoser från 4000 flygplatser (METAR- och TAF-rapporter).

De tillgängliga stationerna syns som gula och röda prickar på kartan.

För musen över prickarna för att se namnen på stationerna.

Klicka sedan för att få väderrapporter och prognoser.

För att ändra kartan: Klicka på de gröna knapparna med ett svart kors på för att zooma in; den gröna knappen med ett streck på för att zooma ut; eller på de gröna pilarna för angränsande kartor.


METAR-TAF: